Kagamaru — JD3049 — position and weather

sailwx.info

Track history (hours):
 
Tides and Currents Weather Stations Pressure Air Temp Water Temp Dewpoint Dewpoint Depression Visibility Wind Speed Wind Dir Waves Ship Positions

Kagamaru

Last reported at 2014-Oct-01 19:34 UTC. Time now 2014-Oct-01 20:25 UTC.
Position N 35°27' E 139°40'.

Length 34 m; draft 3.6 m.

Type: Tug. MMSI: 431001272.

Date/timePositionNaut miles runAvg speedWind from/ knotsBaromVisibWave heightAir tempDewpointWater temp
2014-Oct-01 19:34N 35°27' E 139°40'0 0.0
2014-Oct-01 18:34N 35°27' E 139°40'0 0.0
2014-Oct-01 17:34N 35°27' E 139°40'0 0.0
2014-Oct-01 16:34N 35°27' E 139°40'0 0.0
2014-Oct-01 15:34N 35°27' E 139°40'0 0.0
2014-Oct-01 14:34N 35°27' E 139°40'0 0.0
2014-Oct-01 13:34N 35°27' E 139°40'0 0.0
2014-Oct-01 12:34N 35°27' E 139°40'0 0.0
2014-Oct-01 11:34N 35°27' E 139°40'0 0.0
2014-Oct-01 10:33N 35°27' E 139°40'0 0.0
2014-Oct-01 09:34N 35°27' E 139°40'0 0.0
2014-Oct-01 08:34N 35°27' E 139°40'0 0.0
2014-Oct-01 07:34N 35°27' E 139°40'1 0.9
2014-Oct-01 06:34N 35°28' E 139°41'0 0.0
2014-Oct-01 05:34N 35°28' E 139°41'0 0.0
2014-Oct-01 04:34N 35°28' E 139°41'2 1.7
2014-Oct-01 03:33N 35°28' E 139°43'2 1.7
2014-Oct-01 02:33N 35°28' E 139°41'0 0.0
2014-Oct-01 01:33N 35°28' E 139°41'0 0.0
2014-Oct-01 00:34N 35°28' E 139°41'1 1.3
2014-Sep-30 23:33N 35°26' E 139°41'2 1.7
2014-Sep-30 22:33N 35°26' E 139°43'3 3.1
2014-Sep-30 21:33N 35°27' E 139°39'0 0.0
2014-Sep-30 20:34N 35°27' E 139°39'0 0.0
2014-Sep-30 19:34N 35°27' E 139°39'0 0.0
2014-Sep-30 18:34N 35°27' E 139°39'0 0.0
2014-Sep-30 17:34N 35°27' E 139°39'0 0.0
2014-Sep-30 16:34N 35°27' E 139°39'0 0.0
2014-Sep-30 15:34N 35°27' E 139°39'0 0.0
2014-Sep-30 14:34N 35°27' E 139°39'0 0.0
2014-Sep-30 13:34N 35°27' E 139°39'0 0.0
2014-Sep-30 12:34N 35°27' E 139°39'0 0.0
2014-Sep-30 11:34N 35°27' E 139°39'0 0.0
2014-Sep-30 10:34N 35°27' E 139°39'0 0.0
2014-Sep-30 09:33N 35°27' E 139°39'0 0.0
2014-Sep-30 08:33N 35°27' E 139°39'1 0.5
2014-Sep-30 07:34N 35°27' E 139°40'2 2.2
2014-Sep-30 06:33N 35°26' E 139°42'2 1.9
2014-Sep-30 05:34N 35°28' E 139°40'0 0.0
2014-Sep-30 04:34N 35°28' E 139°40'0 0.0
2014-Sep-30 03:34N 35°28' E 139°40'0 0.0
2014-Sep-30 02:34N 35°28' E 139°40'0 0.0
2014-Sep-30 01:34N 35°28' E 139°40'0 0.0
2014-Sep-30 00:34N 35°28' E 139°40'1 0.9
2014-Sep-29 23:34N 35°28' E 139°41'2 1.8
2014-Sep-29 22:34N 35°27' E 139°43'1 0.6
2014-Sep-29 21:33N 35°27' E 139°42'3 2.6
2014-Sep-29 20:34N 35°27' E 139°39'0 0.0
2014-Sep-29 19:34N 35°27' E 139°39'0 0.0
2014-Sep-29 18:34N 35°27' E 139°39'0 0.0
2014-Sep-29 17:34N 35°27' E 139°39'0 0.0
2014-Sep-29 16:33N 35°27' E 139°39'0 0.0
2014-Sep-29 15:34N 35°27' E 139°39'0 0.0
2014-Sep-29 14:34N 35°27' E 139°39'0 0.0
2014-Sep-29 13:33N 35°27' E 139°39'0 0.0
2014-Sep-29 12:34N 35°27' E 139°39'0 0.0
2014-Sep-29 11:33N 35°27' E 139°39'0 0.0
2014-Sep-29 10:33N 35°27' E 139°39'0 0.0
2014-Sep-29 09:34N 35°27' E 139°39'0 0.0
2014-Sep-29 08:34N 35°27' E 139°39'0 0.0
2014-Sep-28 13:33N 35°27' E 139°39'0 0.0
2014-Sep-28 12:34N 35°27' E 139°39'2 2.3
2014-Sep-28 11:34N 35°26' E 139°42'1 1.1
2014-Sep-28 10:33N 35°26' E 139°41'1 1.5
2014-Sep-28 09:33N 35°28' E 139°41'1 1.0
2014-Sep-28 08:34N 35°27' E 139°41'1 1.1
2014-Sep-28 07:34N 35°27' E 139°40'1 0.9
2014-Sep-28 06:34N 35°28' E 139°41'0 0.0
2014-Sep-28 05:34N 35°28' E 139°41'0 0.0
2014-Sep-28 04:34N 35°28' E 139°41'0 0.0
2014-Sep-28 03:34N 35°28' E 139°41'0 0.0
2014-Sep-28 02:34N 35°28' E 139°41'2 1.6
2014-Sep-28 01:33N 35°26' E 139°42'2 2.1
2014-Sep-28 00:34N 35°27' E 139°39'0 0.0
2014-Sep-27 23:33N 35°27' E 139°39'5 4.7
2014-Sep-27 22:34N 35°30' E 139°44'5 4.8
2014-Sep-27 21:33N 35°27' E 139°39'0 0.0
2014-Sep-27 20:34N 35°27' E 139°39'0 0.0
2014-Sep-27 19:34N 35°27' E 139°39'0 0.0
2014-Sep-27 18:33N 35°27' E 139°39'0 0.0
2014-Sep-27 17:33N 35°27' E 139°39'0 0.0
2014-Sep-27 16:33N 35°27' E 139°39'0 0.0
2014-Sep-27 15:34N 35°27' E 139°39'0 0.0
2014-Sep-27 14:34N 35°27' E 139°39'0 0.0
2014-Sep-27 13:34N 35°27' E 139°39'0 0.0
2014-Sep-27 12:34N 35°27' E 139°39'0 0.0
2014-Sep-27 11:34N 35°27' E 139°39'0 0.0
2014-Sep-27 10:33N 35°27' E 139°39'2 1.7
2014-Sep-27 09:34N 35°27' E 139°41'0 0.2
2014-Sep-27 08:34N 35°27' E 139°41'1 1.5
2014-Sep-27 07:34N 35°27' E 139°39'1 1.3
2014-Sep-27 06:34N 35°27' E 139°41'0 0.3
2014-Sep-27 05:34N 35°26' E 139°41'1 1.3
2014-Sep-27 04:34N 35°27' E 139°42'2 1.8
2014-Sep-27 03:29N 35°28' E 139°44'1 1.4
2014-Sep-27 02:34N 35°27' E 139°44'3 3.2
2014-Sep-27 01:34N 35°27' E 139°40'1 0.6
2014-Sep-27 00:33N 35°28' E 139°40'1 0.9
2014-Sep-26 23:34N 35°28' E 139°41'2 2.3
2014-Sep-26 22:34N 35°27' E 139°43'3 3.3
2014-Sep-26 21:34N 35°27' E 139°39'0 0.0
2014-Sep-26 20:34N 35°27' E 139°39'0 0.0
2014-Sep-26 19:34N 35°27' E 139°39'0 0.0
2014-Sep-26 18:34N 35°27' E 139°39'0 0.0
2014-Sep-26 17:34N 35°27' E 139°39'0 0.0
2014-Sep-26 16:34N 35°27' E 139°39'0 0.0
2014-Sep-26 15:34N 35°27' E 139°39'0 0.0
2014-Sep-26 14:33N 35°27' E 139°39'0 0.0
2014-Sep-26 13:34N 35°27' E 139°39'0 0.0
2014-Sep-26 12:34N 35°27' E 139°39'0 0.0
2014-Sep-26 11:34N 35°27' E 139°39'0 0.0
2014-Sep-26 10:34N 35°27' E 139°39'0 0.0
2014-Sep-26 09:34N 35°27' E 139°39'0 0.0
2014-Sep-26 08:34N 35°27' E 139°39'0 0.0
2014-Sep-26 07:33N 35°27' E 139°39'0 0.0
2014-Sep-26 06:34N 35°27' E 139°39'0 0.0
2014-Sep-26 05:33N 35°27' E 139°39'0 0.0
2014-Sep-26 04:34N 35°27' E 139°39'0 0.0
2014-Sep-26 03:34N 35°27' E 139°39'0 0.0
2014-Sep-26 02:34N 35°27' E 139°39'0 0.0
2014-Sep-26 01:34N 35°27' E 139°39'0 0.0
2014-Sep-26 00:34N 35°27' E 139°39'0 0.5
2014-Sep-25 23:34N 35°27' E 139°39'2 1.8
2014-Sep-25 22:34N 35°27' E 139°41'1 1.1
2014-Sep-25 21:34N 35°27' E 139°42'2 1.6
2014-Sep-25 20:33N 35°27' E 139°40'3 2.9
2014-Sep-25 19:33N 35°24' E 139°40'2 1.7
2014-Sep-25 18:34N 35°25' E 139°42'6 6.2
2014-Sep-25 17:32N 35°30' E 139°47'2 2.3
2014-Sep-25 16:33N 35°28' E 139°45'3 3.2
2014-Sep-25 15:34N 35°27' E 139°41'2 1.6
2014-Sep-25 14:34N 35°27' E 139°39'0 0.0
2014-Sep-25 13:34N 35°27' E 139°39'0 0.0
2014-Sep-25 12:33N 35°27' E 139°39'0 0.0
2014-Sep-25 11:34N 35°27' E 139°39'0 0.0
2014-Sep-25 10:33N 35°27' E 139°39'0 0.0
2014-Sep-25 09:34N 35°27' E 139°39'0 0.0
2014-Sep-25 08:34N 35°27' E 139°39'3 2.5
2014-Sep-25 07:33N 35°26' E 139°42'3 2.6
2014-Sep-25 06:34N 35°27' E 139°39'0 0.1
2014-Sep-25 05:34N 35°27' E 139°39'0 0.0
2014-Sep-25 04:34N 35°27' E 139°39'0 0.0
2014-Sep-25 03:34N 35°27' E 139°39'0 0.0
2014-Sep-25 02:34N 35°27' E 139°39'0 0.0
2014-Sep-25 01:34N 35°27' E 139°39'0 0.0
2014-Sep-25 00:34N 35°27' E 139°39'0 0.0
2014-Sep-24 23:34N 35°27' E 139°39'0 0.0
2014-Sep-24 22:33N 35°27' E 139°39'0 0.0
2014-Sep-24 21:34N 35°27' E 139°39'0 0.0
2014-Sep-24 20:33N 35°27' E 139°39'0 0.0
2014-Sep-24 19:34N 35°27' E 139°39'0 0.0
2014-Sep-24 18:34N 35°27' E 139°39'0 0.0
2014-Sep-24 17:34N 35°27' E 139°39'0 0.0
2014-Sep-24 16:34N 35°27' E 139°39'0 0.0
2014-Sep-24 15:33N 35°27' E 139°39'0 0.0
2014-Sep-24 14:34N 35°27' E 139°39'0 0.0
2014-Sep-24 13:34N 35°27' E 139°39'0 0.0
2014-Sep-24 12:34N 35°27' E 139°39'0 0.0
2014-Sep-24 11:33N 35°27' E 139°39'0 0.0
2014-Sep-24 10:34N 35°27' E 139°39'0 0.0
2014-Sep-22 16:32N 35°27' E 139°39'0 0.0
2014-Sep-22 15:33N 35°27' E 139°39'0 0.0
2014-Sep-22 14:33N 35°27' E 139°39'0 0.0
2014-Sep-22 13:33N 35°27' E 139°39'0 0.0
2014-Sep-22 12:33N 35°27' E 139°39'0 0.0
2014-Sep-22 11:34N 35°27' E 139°39'0 0.0
2014-Sep-22 10:33N 35°27' E 139°39'0 0.0
2014-Sep-22 09:33N 35°27' E 139°39'0 0.0
2014-Sep-22 08:33N 35°27' E 139°39'6 6.3
2014-Sep-22 07:34N 35°28' E 139°47'10 2.8
2014-Sep-22 04:06N 35°29' E 139°59'1 0.3
2014-Sep-21 23:33N 35°29' E 140°00'12 6.1
2014-Sep-21 21:34N 35°27' E 139°46'5 5.2
2014-Sep-21 20:33N 35°27' E 139°39'  
Track history (hours):
 
Tides and Currents Weather Stations Pressure Air Temp Water Temp Dewpoint Dewpoint Depression Visibility Wind Speed Wind Dir Waves Ship Positions

Kagamaru

Last reported at 2014-Oct-01 19:34 UTC. Time now 2014-Oct-01 20:25 UTC.
Position N 35°27' E 139°40'.

Length 34 m; draft 3.6 m.

Type: Tug. MMSI: 431001272.

Date/timePositionNaut miles runAvg speedWind from/ knotsBaromVisibWave heightAir tempDewpointWater temp
2014-Oct-01 19:34N 35°27' E 139°40'0 0.0
2014-Oct-01 18:34N 35°27' E 139°40'0 0.0
2014-Oct-01 17:34N 35°27' E 139°40'0 0.0
2014-Oct-01 16:34N 35°27' E 139°40'0 0.0
2014-Oct-01 15:34N 35°27' E 139°40'0 0.0
2014-Oct-01 14:34N 35°27' E 139°40'0 0.0
2014-Oct-01 13:34N 35°27' E 139°40'0 0.0
2014-Oct-01 12:34N 35°27' E 139°40'0 0.0
2014-Oct-01 11:34N 35°27' E 139°40'0 0.0
2014-Oct-01 10:33N 35°27' E 139°40'0 0.0
2014-Oct-01 09:34N 35°27' E 139°40'0 0.0
2014-Oct-01 08:34N 35°27' E 139°40'0 0.0
2014-Oct-01 07:34N 35°27' E 139°40'1 0.9
2014-Oct-01 06:34N 35°28' E 139°41'0 0.0
2014-Oct-01 05:34N 35°28' E 139°41'0 0.0
2014-Oct-01 04:34N 35°28' E 139°41'2 1.7
2014-Oct-01 03:33N 35°28' E 139°43'2 1.7
2014-Oct-01 02:33N 35°28' E 139°41'0 0.0
2014-Oct-01 01:33N 35°28' E 139°41'0 0.0
2014-Oct-01 00:34N 35°28' E 139°41'1 1.3
2014-Sep-30 23:33N 35°26' E 139°41'2 1.7
2014-Sep-30 22:33N 35°26' E 139°43'3 3.1
2014-Sep-30 21:33N 35°27' E 139°39'0 0.0
2014-Sep-30 20:34N 35°27' E 139°39'0 0.0
2014-Sep-30 19:34N 35°27' E 139°39'0 0.0
2014-Sep-30 18:34N 35°27' E 139°39'0 0.0
2014-Sep-30 17:34N 35°27' E 139°39'0 0.0
2014-Sep-30 16:34N 35°27' E 139°39'0 0.0
2014-Sep-30 15:34N 35°27' E 139°39'0 0.0
2014-Sep-30 14:34N 35°27' E 139°39'0 0.0
2014-Sep-30 13:34N 35°27' E 139°39'0 0.0
2014-Sep-30 12:34N 35°27' E 139°39'0 0.0
2014-Sep-30 11:34N 35°27' E 139°39'0 0.0
2014-Sep-30 10:34N 35°27' E 139°39'0 0.0
2014-Sep-30 09:33N 35°27' E 139°39'0 0.0
2014-Sep-30 08:33N 35°27' E 139°39'1 0.5
2014-Sep-30 07:34N 35°27' E 139°40'2 2.2
2014-Sep-30 06:33N 35°26' E 139°42'2 1.9
2014-Sep-30 05:34N 35°28' E 139°40'0 0.0
2014-Sep-30 04:34N 35°28' E 139°40'0 0.0
2014-Sep-30 03:34N 35°28' E 139°40'0 0.0
2014-Sep-30 02:34N 35°28' E 139°40'0 0.0
2014-Sep-30 01:34N 35°28' E 139°40'0 0.0
2014-Sep-30 00:34N 35°28' E 139°40'1 0.9
2014-Sep-29 23:34N 35°28' E 139°41'2 1.8
2014-Sep-29 22:34N 35°27' E 139°43'1 0.6
2014-Sep-29 21:33N 35°27' E 139°42'3 2.6
2014-Sep-29 20:34N 35°27' E 139°39'0 0.0
2014-Sep-29 19:34N 35°27' E 139°39'0 0.0
2014-Sep-29 18:34N 35°27' E 139°39'0 0.0
2014-Sep-29 17:34N 35°27' E 139°39'0 0.0
2014-Sep-29 16:33N 35°27' E 139°39'0 0.0
2014-Sep-29 15:34N 35°27' E 139°39'0 0.0
2014-Sep-29 14:34N 35°27' E 139°39'0 0.0
2014-Sep-29 13:33N 35°27' E 139°39'0 0.0
2014-Sep-29 12:34N 35°27' E 139°39'0 0.0
2014-Sep-29 11:33N 35°27' E 139°39'0 0.0
2014-Sep-29 10:33N 35°27' E 139°39'0 0.0
2014-Sep-29 09:34N 35°27' E 139°39'0 0.0
2014-Sep-29 08:34N 35°27' E 139°39'0 0.0
2014-Sep-28 13:33N 35°27' E 139°39'0 0.0
2014-Sep-28 12:34N 35°27' E 139°39'2 2.3
2014-Sep-28 11:34N 35°26' E 139°42'1 1.1
2014-Sep-28 10:33N 35°26' E 139°41'1 1.5
2014-Sep-28 09:33N 35°28' E 139°41'1 1.0
2014-Sep-28 08:34N 35°27' E 139°41'1 1.1
2014-Sep-28 07:34N 35°27' E 139°40'1 0.9
2014-Sep-28 06:34N 35°28' E 139°41'0 0.0
2014-Sep-28 05:34N 35°28' E 139°41'0 0.0
2014-Sep-28 04:34N 35°28' E 139°41'0 0.0
2014-Sep-28 03:34N 35°28' E 139°41'0 0.0
2014-Sep-28 02:34N 35°28' E 139°41'2 1.6
2014-Sep-28 01:33N 35°26' E 139°42'2 2.1
2014-Sep-28 00:34N 35°27' E 139°39'0 0.0
2014-Sep-27 23:33N 35°27' E 139°39'5 4.7
2014-Sep-27 22:34N 35°30' E 139°44'5 4.8
2014-Sep-27 21:33N 35°27' E 139°39'0 0.0
2014-Sep-27 20:34N 35°27' E 139°39'0 0.0
2014-Sep-27 19:34N 35°27' E 139°39'0 0.0
2014-Sep-27 18:33N 35°27' E 139°39'0 0.0
2014-Sep-27 17:33N 35°27' E 139°39'0 0.0
2014-Sep-27 16:33N 35°27' E 139°39'0 0.0
2014-Sep-27 15:34N 35°27' E 139°39'0 0.0
2014-Sep-27 14:34N 35°27' E 139°39'0 0.0
2014-Sep-27 13:34N 35°27' E 139°39'0 0.0
2014-Sep-27 12:34N 35°27' E 139°39'0 0.0
2014-Sep-27 11:34N 35°27' E 139°39'0 0.0
2014-Sep-27 10:33N 35°27' E 139°39'2 1.7
2014-Sep-27 09:34N 35°27' E 139°41'0 0.2
2014-Sep-27 08:34N 35°27' E 139°41'1 1.5
2014-Sep-27 07:34N 35°27' E 139°39'1 1.3
2014-Sep-27 06:34N 35°27' E 139°41'0 0.3
2014-Sep-27 05:34N 35°26' E 139°41'1 1.3
2014-Sep-27 04:34N 35°27' E 139°42'2 1.8
2014-Sep-27 03:29N 35°28' E 139°44'1 1.4
2014-Sep-27 02:34N 35°27' E 139°44'3 3.2
2014-Sep-27 01:34N 35°27' E 139°40'1 0.6
2014-Sep-27 00:33N 35°28' E 139°40'1 0.9
2014-Sep-26 23:34N 35°28' E 139°41'2 2.3
2014-Sep-26 22:34N 35°27' E 139°43'3 3.3
2014-Sep-26 21:34N 35°27' E 139°39'0 0.0
2014-Sep-26 20:34N 35°27' E 139°39'0 0.0
2014-Sep-26 19:34N 35°27' E 139°39'0 0.0
2014-Sep-26 18:34N 35°27' E 139°39'0 0.0
2014-Sep-26 17:34N 35°27' E 139°39'0 0.0
2014-Sep-26 16:34N 35°27' E 139°39'0 0.0
2014-Sep-26 15:34N 35°27' E 139°39'0 0.0
2014-Sep-26 14:33N 35°27' E 139°39'0 0.0
2014-Sep-26 13:34N 35°27' E 139°39'0 0.0
2014-Sep-26 12:34N 35°27' E 139°39'0 0.0
2014-Sep-26 11:34N 35°27' E 139°39'0 0.0
2014-Sep-26 10:34N 35°27' E 139°39'0 0.0
2014-Sep-26 09:34N 35°27' E 139°39'0 0.0
2014-Sep-26 08:34N 35°27' E 139°39'0 0.0
2014-Sep-26 07:33N 35°27' E 139°39'0 0.0
2014-Sep-26 06:34N 35°27' E 139°39'0 0.0
2014-Sep-26 05:33N 35°27' E 139°39'0 0.0
2014-Sep-26 04:34N 35°27' E 139°39'0 0.0
2014-Sep-26 03:34N 35°27' E 139°39'0 0.0
2014-Sep-26 02:34N 35°27' E 139°39'0 0.0
2014-Sep-26 01:34N 35°27' E 139°39'0 0.0
2014-Sep-26 00:34N 35°27' E 139°39'0 0.5
2014-Sep-25 23:34N 35°27' E 139°39'2 1.8
2014-Sep-25 22:34N 35°27' E 139°41'1 1.1
2014-Sep-25 21:34N 35°27' E 139°42'2 1.6
2014-Sep-25 20:33N 35°27' E 139°40'3 2.9
2014-Sep-25 19:33N 35°24' E 139°40'2 1.7
2014-Sep-25 18:34N 35°25' E 139°42'6 6.2
2014-Sep-25 17:32N 35°30' E 139°47'2 2.3
2014-Sep-25 16:33N 35°28' E 139°45'3 3.2
2014-Sep-25 15:34N 35°27' E 139°41'2 1.6
2014-Sep-25 14:34N 35°27' E 139°39'0 0.0
2014-Sep-25 13:34N 35°27' E 139°39'0 0.0
2014-Sep-25 12:33N 35°27' E 139°39'0 0.0
2014-Sep-25 11:34N 35°27' E 139°39'0 0.0
2014-Sep-25 10:33N 35°27' E 139°39'0 0.0
2014-Sep-25 09:34N 35°27' E 139°39'0 0.0
2014-Sep-25 08:34N 35°27' E 139°39'3 2.5
2014-Sep-25 07:33N 35°26' E 139°42'3 2.6
2014-Sep-25 06:34N 35°27' E 139°39'0 0.1
2014-Sep-25 05:34N 35°27' E 139°39'0 0.0
2014-Sep-25 04:34N 35°27' E 139°39'0 0.0
2014-Sep-25 03:34N 35°27' E 139°39'0 0.0
2014-Sep-25 02:34N 35°27' E 139°39'0 0.0
2014-Sep-25 01:34N 35°27' E 139°39'0 0.0
2014-Sep-25 00:34N 35°27' E 139°39'0 0.0
2014-Sep-24 23:34N 35°27' E 139°39'0 0.0
2014-Sep-24 22:33N 35°27' E 139°39'0 0.0
2014-Sep-24 21:34N 35°27' E 139°39'0 0.0
2014-Sep-24 20:33N 35°27' E 139°39'0 0.0
2014-Sep-24 19:34N 35°27' E 139°39'0 0.0
2014-Sep-24 18:34N 35°27' E 139°39'0 0.0
2014-Sep-24 17:34N 35°27' E 139°39'0 0.0
2014-Sep-24 16:34N 35°27' E 139°39'0 0.0
2014-Sep-24 15:33N 35°27' E 139°39'0 0.0
2014-Sep-24 14:34N 35°27' E 139°39'0 0.0
2014-Sep-24 13:34N 35°27' E 139°39'0 0.0
2014-Sep-24 12:34N 35°27' E 139°39'0 0.0
2014-Sep-24 11:33N 35°27' E 139°39'0 0.0
2014-Sep-24 10:34N 35°27' E 139°39'0 0.0
2014-Sep-22 16:32N 35°27' E 139°39'0 0.0
2014-Sep-22 15:33N 35°27' E 139°39'0 0.0
2014-Sep-22 14:33N 35°27' E 139°39'0 0.0
2014-Sep-22 13:33N 35°27' E 139°39'0 0.0
2014-Sep-22 12:33N 35°27' E 139°39'0 0.0
2014-Sep-22 11:34N 35°27' E 139°39'0 0.0
2014-Sep-22 10:33N 35°27' E 139°39'0 0.0
2014-Sep-22 09:33N 35°27' E 139°39'0 0.0
2014-Sep-22 08:33N 35°27' E 139°39'6 6.3
2014-Sep-22 07:34N 35°28' E 139°47'10 2.8
2014-Sep-22 04:06N 35°29' E 139°59'1 0.3
2014-Sep-21 23:33N 35°29' E 140°00'12 6.1
2014-Sep-21 21:34N 35°27' E 139°46'5 5.2
2014-Sep-21 20:33N 35°27' E 139°39'  

Dump ship's entire track history